map of ELM home
ELM - Airport
Location
City:  Elmira/Corning, New York, United States
Name:Elmira/Corning Regional
ICAO:KELM
IATA:ELM
FAA LID:ELM

Details
Type:Airport (Part 139 Class I)
Use:Public/Civil
Latitude:4209'35"N (42.159856)
Longitude:7653'30"W (-76.891745)
Datum:WGS 1984
Elevation:954 ft (291 m)
Variation:11.67W (WMM2015 magnetic declination)
0.02 annual change
Runways:3
Longest:8001 × 150 ft (2439 × 45.5 m), paved

Time
Time Zone:UTC-5 (DST-4)
Local Time:

Weather
METAR:KELM 222253Z 24006KT 10SM FEW060 28/19 A2989
TAF:KELM 222320Z 2300/2324 VRB03KT P6SM BKN120
FM231300 21007KT P6SM -SHRA BKN040
FM231600 23010G18KT P6SM -SHRA BKN025
TEMPO 2318/2322 OVC025

Related Locations
Nearby:
Farthest:MQZ: 11573 mi / 18624 km
Margaret River [Margaret River Airport], WA, AU

Find:

   beyond  
but within

Other Information
Maps:
Delays:
NOTAMs:
Links:
Sources:

  
flag of United States
flag of New York
  

Airport Diagram

Airport diagram for ELM

Airport diagram PDF

Sectional Chart

Flight Planning
at skyvector.com

Satellite Image

Google Maps Satellite view

 

Copyright © 2004-2017 Karl L. Swartz. All rights reserved.
The Great Circle Mapper name and logo are trademarks of the Great Circle Mapper.
All other trademarks mentioned herein belong to their respective owners.
Please see credits for attibutions and further copyright information.

  Follow gcmap on Facebook Follow gcmap on Twitter Follow gcmap on Google+ GCmap on LinkedIn

hCard Microformat

Geo Microformat